Time,TemperatureF,DewpointF,PressureIn,WindDirection,WindDirectionDegrees,WindSpeedMPH,WindSpeedGustMPH,Humidity,HourlyPrecipIn,Conditions,Clouds,dailyrainin,SoftwareType,DateUTC
2013-04-18 00:02:00,29.7,19.0,27.76,ESE,113,0.0,0.0,64,0.00,,,0.00,WUHU216HW,2013-04-18 07:02:00,
2013-04-18 00:07:00,29.5,19.2,27.75,ESE,113,0.0,0.0,65,0.00,,,0.00,WUHU216HW,2013-04-18 07:07:00,
2013-04-18 00:12:00,29.5,18.8,27.75,ESE,113,0.0,0.0,64,0.00,,,0.00,WUHU216HW,2013-04-18 07:12:00,
2013-04-18 00:17:00,29.5,18.8,27.75,ESE,113,0.0,0.0,64,0.00,,,0.00,WUHU216HW,2013-04-18 07:17:00,
2013-04-18 00:22:00,29.9,19.1,27.75,ESE,113,0.0,0.0,64,0.00,,,0.00,WUHU216HW,2013-04-18 07:22:00,
2013-04-18 00:27:00,30.1,19.3,27.75,ESE,113,0.0,0.0,64,0.00,,,0.00,WUHU216HW,2013-04-18 07:27:00,
2013-04-18 00:32:00,30.1,19.3,27.75,ESE,113,0.0,0.0,64,0.00,,,0.00,WUHU216HW,2013-04-18 07:32:00,
2013-04-18 00:37:00,30.1,19.3,27.75,ESE,113,0.0,0.0,64,0.00,,,0.00,WUHU216HW,2013-04-18 07:37:00,
2013-04-18 00:42:00,29.7,19.0,27.75,ESE,113,0.0,0.4,64,0.00,,,0.00,WUHU216HW,2013-04-18 07:42:00,
2013-04-18 00:47:00,29.3,18.6,27.75,ESE,113,0.0,0.4,64,0.00,,,0.00,WUHU216HW,2013-04-18 07:47:00,
2013-04-18 00:52:00,29.2,18.5,27.75,ESE,113,0.0,0.4,64,0.00,,,0.00,WUHU216HW,2013-04-18 07:52:00,
2013-04-18 00:57:00,29.0,18.3,27.75,ESE,113,0.0,0.4,64,0.00,,,0.00,WUHU216HW,2013-04-18 07:57:00,
2013-04-18 01:02:00,28.8,18.2,27.75,ESE,113,0.0,0.4,64,0.00,,,0.00,WUHU216HW,2013-04-18 08:02:00,
2013-04-18 01:07:00,28.8,18.6,27.75,ESE,113,0.0,0.4,65,0.00,,,0.00,WUHU216HW,2013-04-18 08:07:00,
2013-04-18 01:12:00,28.6,18.7,27.75,ESE,113,0.0,0.2,66,0.00,,,0.00,WUHU216HW,2013-04-18 08:12:00,
2013-04-18 01:17:00,28.4,18.5,27.74,ESE,113,0.4,0.4,66,0.00,,,0.00,WUHU216HW,2013-04-18 08:17:00,
2013-04-18 01:22:00,28.6,19.1,27.74,ESE,113,0.0,0.4,67,0.00,,,0.00,WUHU216HW,2013-04-18 08:22:00,
2013-04-18 01:27:00,28.8,19.3,27.74,ESE,113,0.7,1.1,67,0.00,,,0.00,WUHU216HW,2013-04-18 08:27:00,
2013-04-18 01:32:00,29.2,19.2,27.74,ESE,113,0.7,1.1,66,0.00,,,0.00,WUHU216HW,2013-04-18 08:32:00,
2013-04-18 01:37:00,30.4,20.3,27.74,SE,135,0.2,1.1,66,0.00,,,0.00,WUHU216HW,2013-04-18 08:37:00,
2013-04-18 01:42:00,31.0,19.8,27.74,SE,135,0.0,1.1,63,0.00,,,0.00,WUHU216HW,2013-04-18 08:42:00,
2013-04-18 01:47:00,30.8,19.6,27.74,SE,135,0.0,0.4,63,0.00,,,0.00,WUHU216HW,2013-04-18 08:47:00,
2013-04-18 01:52:00,30.4,19.3,27.74,ENE,68,0.7,1.1,63,0.00,,,0.00,WUHU216HW,2013-04-18 08:52:00,
2013-04-18 01:57:00,29.7,19.0,27.74,ENE,68,0.2,1.1,64,0.00,,,0.00,WUHU216HW,2013-04-18 08:57:00,
2013-04-18 02:02:00,29.2,18.1,27.74,ENE,68,0.2,0.7,63,0.00,,,0.00,WUHU216HW,2013-04-18 09:02:00,
2013-04-18 02:07:00,28.8,18.6,27.74,ENE,68,0.0,0.4,65,0.00,,,0.00,WUHU216HW,2013-04-18 09:07:00,
2013-04-18 02:12:00,28.4,18.2,27.74,ENE,68,0.0,0.2,65,0.00,,,0.00,WUHU216HW,2013-04-18 09:12:00,
2013-04-18 02:17:00,28.4,18.2,27.74,ENE,68,0.0,0.0,65,0.00,,,0.00,WUHU216HW,2013-04-18 09:17:00,
2013-04-18 02:22:00,28.1,18.5,27.74,ENE,68,0.0,0.4,67,0.00,,,0.00,WUHU216HW,2013-04-18 09:22:00,
2013-04-18 02:27:00,27.9,18.7,27.74,ENE,68,0.0,0.4,68,0.00,,,0.00,WUHU216HW,2013-04-18 09:27:00,
2013-04-18 02:32:00,27.7,18.5,27.74,ENE,68,0.0,0.0,68,0.00,,,0.00,WUHU216HW,2013-04-18 09:32:00,
2013-04-18 02:37:00,27.5,18.7,27.74,ENE,68,0.0,0.0,69,0.00,,,0.00,WUHU216HW,2013-04-18 09:37:00,
2013-04-18 02:42:00,27.4,18.9,27.74,ENE,68,0.0,0.0,70,0.00,,,0.00,WUHU216HW,2013-04-18 09:42:00,
2013-04-18 02:47:00,27.0,18.5,27.74,ENE,68,0.0,0.0,70,0.00,,,0.00,WUHU216HW,2013-04-18 09:47:00,
2013-04-18 02:52:00,27.0,18.5,27.74,ENE,68,0.0,0.0,70,0.00,,,0.00,WUHU216HW,2013-04-18 09:52:00,
2013-04-18 02:57:00,26.8,18.6,27.73,ENE,68,0.0,0.0,71,0.00,,,0.00,WUHU216HW,2013-04-18 09:57:00,
2013-04-18 03:02:00,26.8,18.6,27.73,North,0,0.0,0.0,71,0.00,,,0.00,WUHU216HW,2013-04-18 10:02:00,
2013-04-18 03:07:00,27.0,19.2,27.73,North,0,0.0,0.0,72,0.00,,,0.00,WUHU216HW,2013-04-18 10:07:00,
2013-04-18 03:12:00,27.0,19.2,27.73,North,0,0.0,0.0,72,0.00,,,0.00,WUHU216HW,2013-04-18 10:12:00,
2013-04-18 03:17:00,27.0,18.8,27.74,North,0,0.0,0.0,71,0.00,,,0.00,WUHU216HW,2013-04-18 10:17:00,
2013-04-18 03:22:00,26.6,18.5,27.74,North,0,0.0,0.0,71,0.00,,,0.00,WUHU216HW,2013-04-18 10:22:00,
2013-04-18 03:27:00,26.6,18.8,27.73,North,0,0.0,0.0,72,0.00,,,0.00,WUHU216HW,2013-04-18 10:27:00,
2013-04-18 03:32:00,26.5,18.6,27.74,North,0,0.0,0.0,72,0.00,,,0.00,WUHU216HW,2013-04-18 10:32:00,
2013-04-18 03:37:00,26.3,18.5,27.74,North,0,0.0,0.0,72,0.00,,,0.00,WUHU216HW,2013-04-18 10:37:00,
2013-04-18 03:42:00,26.3,18.5,27.74,North,0,0.0,0.0,72,0.00,,,0.00,WUHU216HW,2013-04-18 10:42:00,
2013-04-18 03:47:00,26.1,18.3,27.74,North,0,0.0,0.0,72,0.00,,,0.00,WUHU216HW,2013-04-18 10:47:00,
2013-04-18 03:52:00,25.9,18.1,27.74,North,0,0.0,0.0,72,0.00,,,0.00,WUHU216HW,2013-04-18 10:52:00,
2013-04-18 03:57:00,25.9,18.1,27.74,North,0,0.0,0.0,72,0.00,,,0.00,WUHU216HW,2013-04-18 10:57:00,
2013-04-18 04:02:00,25.7,17.9,27.74,North,0,0.0,0.0,72,0.00,,,0.00,WUHU216HW,2013-04-18 11:02:00,
2013-04-18 04:07:00,25.7,18.3,27.74,North,0,0.0,0.0,73,0.00,,,0.00,WUHU216HW,2013-04-18 11:07:00,
2013-04-18 04:12:00,25.6,18.1,27.74,North,0,0.0,0.0,73,0.00,,,0.00,WUHU216HW,2013-04-18 11:12:00,
2013-04-18 04:17:00,25.6,18.1,27.74,ENE,68,0.0,0.0,73,0.00,,,0.00,WUHU216HW,2013-04-18 11:17:00,
2013-04-18 04:22:00,25.6,18.1,27.74,ENE,68,0.0,0.0,73,0.00,,,0.00,WUHU216HW,2013-04-18 11:22:00,
2013-04-18 04:27:00,25.6,18.4,27.74,ENE,68,0.0,0.0,74,0.00,,,0.00,WUHU216HW,2013-04-18 11:27:00,
2013-04-18 04:32:00,25.6,18.4,27.75,ENE,68,0.0,0.0,74,0.00,,,0.00,WUHU216HW,2013-04-18 11:32:00,
2013-04-18 04:37:00,25.6,18.4,27.74,ENE,68,0.0,0.0,74,0.00,,,0.00,WUHU216HW,2013-04-18 11:37:00,
2013-04-18 04:42:00,25.4,18.2,27.75,ENE,68,0.0,0.0,74,0.00,,,0.00,WUHU216HW,2013-04-18 11:42:00,
2013-04-18 04:47:00,25.4,18.6,27.75,ENE,68,0.0,0.0,75,0.00,,,0.00,WUHU216HW,2013-04-18 11:47:00,
2013-04-18 04:52:00,25.4,18.6,27.75,ENE,68,0.0,0.0,75,0.00,,,0.00,WUHU216HW,2013-04-18 11:52:00,
2013-04-18 04:57:00,25.4,18.6,27.74,ENE,68,0.0,0.0,75,0.00,,,0.00,WUHU216HW,2013-04-18 11:57:00,
2013-04-18 05:02:00,25.4,18.6,27.74,ENE,68,0.0,0.0,75,0.00,,,0.00,WUHU216HW,2013-04-18 12:02:00,
2013-04-18 05:07:00,25.2,18.4,27.74,ENE,68,0.0,0.0,75,0.00,,,0.00,WUHU216HW,2013-04-18 12:07:00,
2013-04-18 05:12:00,25.2,18.4,27.74,ENE,68,0.0,0.0,75,0.00,,,0.00,WUHU216HW,2013-04-18 12:12:00,
2013-04-18 05:17:00,25.2,18.4,27.75,ENE,68,0.0,0.0,75,0.00,,,0.00,WUHU216HW,2013-04-18 12:17:00,
2013-04-18 05:22:00,25.2,18.4,27.75,ENE,68,0.0,0.0,75,0.00,,,0.00,WUHU216HW,2013-04-18 12:22:00,
2013-04-18 05:27:00,25.2,18.4,27.75,ENE,68,0.2,0.7,75,0.00,,,0.00,WUHU216HW,2013-04-18 12:27:00,
2013-04-18 05:32:00,25.2,18.4,27.75,ENE,68,0.0,0.7,75,0.00,,,0.00,WUHU216HW,2013-04-18 12:32:00,
2013-04-18 05:37:00,25.2,18.4,27.75,ENE,68,0.0,0.4,75,0.00,,,0.00,WUHU216HW,2013-04-18 12:37:00,
2013-04-18 05:42:00,25.2,18.4,27.75,ENE,68,0.0,0.2,75,0.00,,,0.00,WUHU216HW,2013-04-18 12:42:00,
2013-04-18 05:47:00,25.0,18.2,27.75,ENE,68,0.0,0.4,75,0.00,,,0.00,WUHU216HW,2013-04-18 12:47:00,
2013-04-18 05:52:00,25.0,18.5,27.75,ENE,68,0.0,0.4,76,0.00,,,0.00,WUHU216HW,2013-04-18 12:52:00,
2013-04-18 05:57:00,25.0,18.5,27.75,ENE,68,0.0,0.2,76,0.00,,,0.00,WUHU216HW,2013-04-18 12:57:00,
2013-04-18 06:02:00,25.0,18.5,27.75,ENE,68,0.0,0.4,76,0.00,,,0.00,WUHU216HW,2013-04-18 13:02:00,
2013-04-18 06:07:00,25.0,18.5,27.75,ENE,68,0.0,0.4,76,0.00,,,0.00,WUHU216HW,2013-04-18 13:07:00,
2013-04-18 06:12:00,25.2,19.0,27.75,ENE,68,0.0,0.2,77,0.00,,,0.00,WUHU216HW,2013-04-18 13:12:00,
2013-04-18 06:17:00,25.2,18.6,27.76,ENE,68,0.0,0.0,76,0.00,,,0.00,WUHU216HW,2013-04-18 13:17:00,
2013-04-18 06:22:00,25.4,18.8,27.75,ENE,68,0.0,0.4,76,0.00,,,0.00,WUHU216HW,2013-04-18 13:22:00,
2013-04-18 06:27:00,25.4,18.8,27.75,ENE,68,0.0,0.4,76,0.00,,,0.00,WUHU216HW,2013-04-18 13:27:00,
2013-04-18 06:32:00,25.4,18.8,27.75,ENE,68,0.0,0.0,76,0.00,,,0.00,WUHU216HW,2013-04-18 13:32:00,
2013-04-18 06:37:00,25.6,19.4,27.76,ENE,68,0.4,0.7,77,0.00,,,0.00,WUHU216HW,2013-04-18 13:37:00,
2013-04-18 06:42:00,25.7,19.2,27.76,ENE,68,0.2,0.7,76,0.00,,,0.00,WUHU216HW,2013-04-18 13:42:00,
2013-04-18 06:47:00,25.9,19.0,27.76,ENE,68,0.0,0.4,75,0.00,,,0.00,WUHU216HW,2013-04-18 13:47:00,
2013-04-18 06:52:00,25.9,19.0,27.76,ENE,68,0.0,0.4,75,0.00,,,0.00,WUHU216HW,2013-04-18 13:52:00,
2013-04-18 06:57:00,26.1,19.5,27.76,ENE,68,0.4,0.4,76,0.00,,,0.00,WUHU216HW,2013-04-18 13:57:00,
2013-04-18 07:02:00,26.3,20.0,27.76,ENE,68,0.0,0.4,77,0.00,,,0.00,WUHU216HW,2013-04-18 14:02:00,
2013-04-18 07:07:00,26.8,20.2,27.76,ENE,68,0.0,0.4,76,0.00,,,0.00,WUHU216HW,2013-04-18 14:07:00,
2013-04-18 07:12:00,27.0,20.3,27.77,ENE,68,0.0,0.0,76,0.00,,,0.00,WUHU216HW,2013-04-18 14:12:00,
2013-04-18 07:17:00,27.4,20.7,27.77,ENE,68,0.0,0.0,76,0.00,,,0.00,WUHU216HW,2013-04-18 14:17:00,
2013-04-18 07:22:00,28.1,21.4,27.77,ENE,68,0.0,0.0,76,0.00,,,0.00,WUHU216HW,2013-04-18 14:22:00,
2013-04-18 07:27:00,28.6,21.7,27.77,ENE,68,0.4,0.4,75,0.00,,,0.00,WUHU216HW,2013-04-18 14:27:00,
2013-04-18 07:32:00,29.2,22.5,27.77,ENE,68,0.4,0.7,76,0.00,,,0.00,WUHU216HW,2013-04-18 14:32:00,
2013-04-18 07:37:00,29.5,22.9,27.77,ENE,68,0.0,0.7,76,0.00,,,0.00,WUHU216HW,2013-04-18 14:37:00,
2013-04-18 07:42:00,30.2,23.2,27.77,ESE,113,1.8,1.8,75,0.00,,,0.00,WUHU216HW,2013-04-18 14:42:00,
2013-04-18 07:47:00,31.3,23.9,27.77,East,90,0.2,1.8,74,0.00,,,0.00,WUHU216HW,2013-04-18 14:47:00,
2013-04-18 07:52:00,32.4,24.4,27.77,East,90,0.2,1.8,72,0.00,,,0.00,WUHU216HW,2013-04-18 14:52:00,
2013-04-18 07:57:00,33.7,25.2,27.77,East,90,0.0,1.1,71,0.00,,,0.00,WUHU216HW,2013-04-18 14:57:00,
2013-04-18 08:02:00,34.9,26.1,27.77,SE,135,0.4,0.9,70,0.00,,,0.00,WUHU216HW,2013-04-18 15:02:00,
2013-04-18 08:07:00,36.0,26.8,27.77,SW,225,0.7,0.9,69,0.00,,,0.00,WUHU216HW,2013-04-18 15:07:00,
2013-04-18 08:12:00,37.1,27.6,27.76,SW,225,0.4,1.1,68,0.00,,,0.00,WUHU216HW,2013-04-18 15:12:00,
2013-04-18 08:17:00,38.3,27.9,27.76,South,180,0.4,2.0,66,0.00,,,0.00,WUHU216HW,2013-04-18 15:17:00,
2013-04-18 08:22:00,38.9,27.6,27.76,SSW,203,1.8,2.0,64,0.00,,,0.00,WUHU216HW,2013-04-18 15:22:00,
2013-04-18 08:27:00,39.4,28.2,27.77,SSE,158,0.7,3.1,64,0.00,,,0.00,WUHU216HW,2013-04-18 15:27:00,
2013-04-18 08:32:00,39.6,28.0,27.77,SW,225,2.5,3.1,63,0.00,,,0.00,WUHU216HW,2013-04-18 15:32:00,
2013-04-18 08:37:00,40.1,28.5,27.77,SW,225,0.9,2.5,63,0.00,,,0.00,WUHU216HW,2013-04-18 15:37:00,
2013-04-18 08:42:00,40.5,28.1,27.77,South,180,1.1,2.5,61,0.00,,,0.00,WUHU216HW,2013-04-18 15:42:00,
2013-04-18 08:47:00,41.0,28.6,27.77,East,90,1.3,3.4,61,0.00,,,0.00,WUHU216HW,2013-04-18 15:47:00,
2013-04-18 08:52:00,42.1,29.3,27.77,SW,225,1.1,3.4,60,0.00,,,0.00,WUHU216HW,2013-04-18 15:52:00,
2013-04-18 08:57:00,43.6,29.7,27.76,SSW,203,2.5,2.9,58,0.00,,,0.00,WUHU216HW,2013-04-18 15:57:00,
2013-04-18 09:05:00,45.0,30.7,27.77,SSE,158,1.1,3.1,57,0.00,,,0.00,WUHU216HW,2013-04-18 16:05:00,
2013-04-18 09:10:00,45.0,29.4,27.77,SSW,203,1.8,3.1,54,0.00,,,0.00,WUHU216HW,2013-04-18 16:10:00,
2013-04-18 09:16:00,45.0,30.3,27.77,SSW,203,2.2,3.4,56,0.00,,,0.00,WUHU216HW,2013-04-18 16:16:00,
2013-04-18 09:21:00,45.7,30.0,27.77,SW,225,3.8,4.3,54,0.00,,,0.00,WUHU216HW,2013-04-18 16:21:00,
2013-04-18 09:26:00,46.4,30.6,27.77,SSW,203,3.4,4.7,54,0.00,,,0.00,WUHU216HW,2013-04-18 16:26:00,
2013-04-18 09:32:00,46.8,30.1,27.77,WSW,248,4.7,4.7,52,0.00,,,0.00,WUHU216HW,2013-04-18 16:32:00,
2013-04-18 09:37:00,47.2,30.3,27.77,SW,225,2.9,4.7,52,0.00,,,0.00,WUHU216HW,2013-04-18 16:37:00,
2013-04-18 09:42:00,47.3,30.5,27.77,SSW,203,1.8,3.8,52,0.00,,,0.00,WUHU216HW,2013-04-18 16:42:00,
2013-04-18 09:47:00,47.9,31.1,27.77,SW,225,0.4,3.4,52,0.00,,,0.00,WUHU216HW,2013-04-18 16:47:00,
2013-04-18 09:52:00,48.1,31.7,27.77,SE,135,1.8,3.4,53,0.00,,,0.00,WUHU216HW,2013-04-18 16:52:00,
2013-04-18 09:58:00,48.2,30.9,27.77,West,270,4.3,4.3,51,0.00,,,0.00,WUHU216HW,2013-04-18 16:58:00,
2013-04-18 10:03:00,48.8,31.0,27.77,WSW,248,4.0,6.0,50,0.00,,,0.00,WUHU216HW,2013-04-18 17:03:00,
2013-04-18 10:08:00,49.1,31.3,27.78,SW,225,4.5,6.0,50,0.00,,,0.00,WUHU216HW,2013-04-18 17:08:00,
2013-04-18 10:13:00,49.5,32.1,27.78,SSW,203,0.9,4.5,51,0.00,,,0.00,WUHU216HW,2013-04-18 17:13:00,
2013-04-18 10:18:00,49.5,31.2,27.78,South,180,3.4,4.7,49,0.00,,,0.00,WUHU216HW,2013-04-18 17:18:00,
2013-04-18 10:23:00,49.7,32.3,27.78,SSE,158,3.4,4.7,51,0.00,,,0.00,WUHU216HW,2013-04-18 17:23:00,
2013-04-18 10:28:00,50.4,32.6,27.77,SSW,203,2.5,4.5,50,0.00,,,0.00,WUHU216HW,2013-04-18 17:28:00,
2013-04-18 10:33:00,50.8,32.3,27.78,WSW,248,5.6,7.2,49,0.00,,,0.00,WUHU216HW,2013-04-18 17:33:00,
2013-04-18 10:38:00,50.6,32.7,27.78,SE,135,1.3,7.2,50,0.00,,,0.00,WUHU216HW,2013-04-18 17:38:00,
2013-04-18 10:43:00,51.1,32.7,27.78,SW,225,3.4,6.0,49,0.00,,,0.00,WUHU216HW,2013-04-18 17:43:00,
2013-04-18 10:49:00,50.8,31.8,27.78,East,90,3.6,6.0,48,0.00,,,0.00,WUHU216HW,2013-04-18 17:49:00,
2013-04-18 10:54:00,51.3,32.8,27.77,South,180,1.6,5.4,49,0.00,,,0.00,WUHU216HW,2013-04-18 17:54:00,
2013-04-18 10:59:00,51.8,32.8,27.78,SSW,203,3.4,6.9,48,0.00,,,0.00,WUHU216HW,2013-04-18 17:59:00,
2013-04-18 11:04:00,52.2,32.5,27.77,SW,225,1.1,6.9,47,0.00,,,0.00,WUHU216HW,2013-04-18 18:04:00,
2013-04-18 11:09:00,52.4,33.8,27.77,South,180,1.8,6.3,49,0.00,,,0.00,WUHU216HW,2013-04-18 18:09:00,
2013-04-18 11:14:00,52.6,33.4,27.77,SSE,158,2.7,5.4,48,0.00,,,0.00,WUHU216HW,2013-04-18 18:14:00,
2013-04-18 11:19:00,52.6,33.9,27.77,SSW,203,2.9,5.4,49,0.00,,,0.00,WUHU216HW,2013-04-18 18:19:00,
2013-04-18 11:24:00,52.9,33.1,27.77,SW,225,2.9,5.6,47,0.00,,,0.00,WUHU216HW,2013-04-18 18:24:00,
2013-04-18 11:29:00,53.1,32.8,27.77,SW,225,5.4,5.6,46,0.00,,,0.00,WUHU216HW,2013-04-18 18:29:00,
2013-04-18 11:34:00,52.7,32.4,27.76,SW,225,1.1,5.4,46,0.00,,,0.00,WUHU216HW,2013-04-18 18:34:00,
2013-04-18 11:39:00,53.6,32.7,27.76,WSW,248,4.7,5.4,45,0.00,,,0.00,WUHU216HW,2013-04-18 18:39:00,
2013-04-18 11:44:00,53.5,33.0,27.76,SW,225,3.6,7.4,46,0.00,,,0.00,WUHU216HW,2013-04-18 18:44:00,
2013-04-18 11:49:00,53.3,33.0,27.76,SW,225,4.5,7.4,46,0.00,,,0.00,WUHU216HW,2013-04-18 18:49:00,
2013-04-18 11:54:00,53.8,32.9,27.76,WSW,248,5.1,6.9,45,0.00,,,0.00,WUHU216HW,2013-04-18 18:54:00,
2013-04-18 11:59:00,54.2,32.6,27.76,SSW,203,3.4,6.9,44,0.00,,,0.00,WUHU216HW,2013-04-18 18:59:00,
2013-04-18 12:04:00,54.7,34.2,27.76,SSE,158,1.6,6.3,46,0.00,,,0.00,WUHU216HW,2013-04-18 19:04:00,
2013-04-18 12:09:00,54.9,33.2,27.76,SSW,203,2.5,6.3,44,0.00,,,0.00,WUHU216HW,2013-04-18 19:09:00,
2013-04-18 12:14:00,55.1,33.9,27.76,SSE,158,3.1,5.6,45,0.00,,,0.00,WUHU216HW,2013-04-18 19:14:00,
2013-04-18 12:19:00,54.9,33.9,27.76,SW,225,6.9,6.9,45,0.00,,,0.00,WUHU216HW,2013-04-18 19:19:00,
2013-04-18 12:24:00,54.4,32.8,27.75,West,270,5.4,6.9,44,0.00,,,0.00,WUHU216HW,2013-04-18 19:24:00,
2013-04-18 12:29:00,54.5,34.6,27.75,SW,225,3.8,6.9,47,0.00,,,0.00,WUHU216HW,2013-04-18 19:29:00,
2013-04-18 12:34:00,54.9,34.4,27.75,SSW,203,2.9,6.3,46,0.00,,,0.00,WUHU216HW,2013-04-18 19:34:00,
2013-04-18 12:39:00,55.6,34.5,27.75,South,180,2.2,4.7,45,0.00,,,0.00,WUHU216HW,2013-04-18 19:39:00,
2013-04-18 12:44:00,54.7,34.2,27.75,SSW,203,6.0,6.0,46,0.00,,,0.00,WUHU216HW,2013-04-18 19:44:00,
2013-04-18 12:49:00,55.8,34.1,27.75,SW,225,2.5,7.4,44,0.00,,,0.00,WUHU216HW,2013-04-18 19:49:00,
2013-04-18 12:54:00,56.0,32.6,27.74,SE,135,1.3,7.8,41,0.00,,,0.00,WUHU216HW,2013-04-18 19:54:00,
2013-04-18 12:59:00,56.7,34.4,27.74,WSW,248,5.6,9.2,43,0.00,,,0.00,WUHU216HW,2013-04-18 19:59:00,
2013-04-18 13:05:00,57.6,35.2,27.74,SSW,203,2.0,9.2,43,0.00,,,0.00,WUHU216HW,2013-04-18 20:05:00,
2013-04-18 13:10:00,56.5,33.0,27.74,SSW,203,6.5,6.5,41,0.00,,,0.00,WUHU216HW,2013-04-18 20:10:00,
2013-04-18 13:15:00,57.1,34.1,27.74,West,270,2.5,6.5,42,0.00,,,0.00,WUHU216HW,2013-04-18 20:15:00,
2013-04-18 13:19:00,56.3,33.5,27.74,WSW,248,4.7,6.0,42,0.00,,,0.00,WUHU216HW,2013-04-18 20:19:00,
2013-04-18 13:24:00,54.4,31.7,27.74,SW,225,4.7,6.9,42,0.00,,,0.00,WUHU216HW,2013-04-18 20:24:00,
2013-04-18 13:30:00,54.7,34.7,27.74,SW,225,4.0,6.9,47,0.00,,,0.00,WUHU216HW,2013-04-18 20:30:00,
2013-04-18 13:35:00,56.3,34.0,27.74,West,270,2.7,4.7,43,0.00,,,0.00,WUHU216HW,2013-04-18 20:35:00,
2013-04-18 13:40:00,55.8,32.4,27.74,WSW,248,2.0,4.0,41,0.00,,,0.00,WUHU216HW,2013-04-18 20:40:00,
2013-04-18 13:45:00,54.9,32.7,27.74,South,180,1.8,4.9,43,0.00,,,0.00,WUHU216HW,2013-04-18 20:45:00,
2013-04-18 13:50:00,54.7,32.5,27.74,WSW,248,1.3,4.9,43,0.00,,,0.00,WUHU216HW,2013-04-18 20:50:00,
2013-04-18 13:55:00,54.4,32.2,27.74,SSW,203,3.8,5.1,43,0.00,,,0.00,WUHU216HW,2013-04-18 20:55:00,
2013-04-18 14:00:00,53.6,32.7,27.74,SW,225,4.0,5.1,45,0.00,,,0.00,WUHU216HW,2013-04-18 21:00:00,
2013-04-18 14:05:00,53.5,31.4,27.74,WSW,248,2.9,5.8,43,0.00,,,0.00,WUHU216HW,2013-04-18 21:05:00,
2013-04-18 14:10:00,53.6,32.7,27.74,SW,225,2.2,6.0,45,0.00,,,0.00,WUHU216HW,2013-04-18 21:10:00,
2013-04-18 14:15:00,53.6,33.2,27.74,SSW,203,2.5,6.0,46,0.00,,,0.00,WUHU216HW,2013-04-18 21:15:00,
2013-04-18 14:20:00,53.6,33.2,27.74,SW,225,2.2,3.8,46,0.00,,,0.00,WUHU216HW,2013-04-18 21:20:00,
2013-04-18 14:25:00,53.5,33.0,27.74,SW,225,2.9,8.5,46,0.00,,,0.00,WUHU216HW,2013-04-18 21:25:00,
2013-04-18 14:30:00,53.5,33.0,27.74,SSW,203,1.1,8.5,46,0.00,,,0.00,WUHU216HW,2013-04-18 21:30:00,
2013-04-18 14:35:00,54.2,33.8,27.74,WSW,248,3.1,4.7,46,0.00,,,0.00,WUHU216HW,2013-04-18 21:35:00,
2013-04-18 14:40:00,54.4,34.5,27.73,WSW,248,2.2,5.4,47,0.00,,,0.00,WUHU216HW,2013-04-18 21:40:00,
2013-04-18 14:45:00,54.2,33.8,27.73,SSW,203,2.0,5.4,46,0.00,,,0.00,WUHU216HW,2013-04-18 21:45:00,
2013-04-18 14:50:00,53.6,32.7,27.73,SW,225,5.4,6.3,45,0.00,,,0.00,WUHU216HW,2013-04-18 21:50:00,
2013-04-18 14:55:00,53.6,33.2,27.73,SW,225,3.1,6.3,46,0.00,,,0.00,WUHU216HW,2013-04-18 21:55:00,
2013-04-18 15:00:00,53.5,32.5,27.73,SW,225,6.3,6.3,45,0.00,,,0.00,WUHU216HW,2013-04-18 22:00:00,
2013-04-18 15:05:00,53.5,33.0,27.73,SW,225,3.6,6.3,46,0.00,,,0.00,WUHU216HW,2013-04-18 22:05:00,
2013-04-18 15:10:00,53.6,32.1,27.73,SSW,203,2.9,7.6,44,0.00,,,0.00,WUHU216HW,2013-04-18 22:10:00,
2013-04-18 15:15:00,53.5,33.0,27.73,SW,225,3.1,7.6,46,0.00,,,0.00,WUHU216HW,2013-04-18 22:15:00,
2013-04-18 15:20:00,53.6,33.2,27.73,South,180,1.3,5.4,46,0.00,,,0.00,WUHU216HW,2013-04-18 22:20:00,
2013-04-18 15:25:00,53.8,32.9,27.73,SSW,203,3.6,3.8,45,0.00,,,0.00,WUHU216HW,2013-04-18 22:25:00,
2013-04-18 15:30:00,53.8,33.4,27.73,WSW,248,5.8,5.8,46,0.00,,,0.00,WUHU216HW,2013-04-18 22:30:00,
2013-04-18 15:35:00,54.0,33.6,27.72,West,270,2.7,5.8,46,0.00,,,0.00,WUHU216HW,2013-04-18 22:35:00,
2013-04-18 15:40:00,54.4,33.8,27.72,SW,225,5.6,5.8,46,0.00,,,0.00,WUHU216HW,2013-04-18 22:40:00,
2013-04-18 15:45:00,54.4,33.8,27.72,South,180,1.8,5.6,46,0.00,,,0.00,WUHU216HW,2013-04-18 22:45:00,
2013-04-18 15:50:00,54.2,33.1,27.72,SSW,203,2.5,5.4,45,0.00,,,0.00,WUHU216HW,2013-04-18 22:50:00,
2013-04-18 15:55:00,54.2,33.8,27.72,SW,225,2.9,5.6,46,0.00,,,0.00,WUHU216HW,2013-04-18 22:55:00,
2013-04-18 16:00:00,54.2,33.1,27.72,SW,225,1.3,5.6,45,0.00,,,0.00,WUHU216HW,2013-04-18 23:00:00,
2013-04-18 16:05:00,54.0,33.6,27.72,SSW,203,2.5,5.1,46,0.00,,,0.00,WUHU216HW,2013-04-18 23:05:00,
2013-04-18 16:10:00,53.8,33.4,27.71,SSW,203,2.5,4.3,46,0.00,,,0.00,WUHU216HW,2013-04-18 23:10:00,
2013-04-18 16:15:00,53.8,33.4,27.71,SW,225,2.5,4.3,46,0.00,,,0.00,WUHU216HW,2013-04-18 23:15:00,
2013-04-18 16:20:00,53.8,33.4,27.71,SSW,203,3.4,3.6,46,0.00,,,0.00,WUHU216HW,2013-04-18 23:20:00,
2013-04-18 16:25:00,53.6,33.2,27.71,SE,135,2.5,3.4,46,0.00,,,0.00,WUHU216HW,2013-04-18 23:25:00,
2013-04-18 16:30:00,53.8,33.9,27.71,SSE,158,2.2,3.8,47,0.00,,,0.00,WUHU216HW,2013-04-18 23:30:00,
2013-04-18 16:35:00,54.2,34.8,27.71,South,180,1.8,3.8,48,0.00,,,0.00,WUHU216HW,2013-04-18 23:35:00,
2013-04-18 16:40:00,54.4,34.5,27.71,SSE,158,2.2,4.7,47,0.00,,,0.00,WUHU216HW,2013-04-18 23:40:00,
2013-04-18 16:44:00,54.4,33.8,27.71,SW,225,3.1,4.7,46,0.00,,,0.00,WUHU216HW,2013-04-18 23:44:00,
2013-04-18 16:49:00,54.0,34.7,27.71,South,180,1.8,3.4,48,0.00,,,0.00,WUHU216HW,2013-04-18 23:49:00,
2013-04-18 16:54:00,53.8,33.9,27.70,South,180,1.1,3.4,47,0.00,,,0.00,WUHU216HW,2013-04-18 23:54:00,
2013-04-18 16:59:00,53.5,34.2,27.70,SW,225,2.5,3.4,48,0.00,,,0.00,WUHU216HW,2013-04-18 23:59:00,
2013-04-18 17:05:00,53.3,34.6,27.70,SE,135,2.5,3.8,49,0.00,,,0.00,WUHU216HW,2013-04-19 00:05:00,
2013-04-18 17:10:00,52.9,34.3,27.70,South,180,3.8,4.0,49,0.00,,,0.00,WUHU216HW,2013-04-19 00:10:00,
2013-04-18 17:14:00,52.6,33.9,27.70,SSW,203,2.7,4.0,49,0.00,,,0.00,WUHU216HW,2013-04-19 00:14:00,
2013-04-18 17:19:00,52.2,33.6,27.70,SSW,203,2.5,3.8,49,0.00,,,0.00,WUHU216HW,2013-04-19 00:19:00,
2013-04-18 17:24:00,52.0,34.0,27.70,SSE,158,3.4,3.4,50,0.00,,,0.00,WUHU216HW,2013-04-19 00:24:00,
2013-04-18 17:29:00,51.8,33.8,27.71,SSE,158,3.8,4.0,50,0.00,,,0.00,WUHU216HW,2013-04-19 00:29:00,
2013-04-18 17:34:00,51.8,34.3,27.71,SSW,203,0.9,4.0,51,0.00,,,0.00,WUHU216HW,2013-04-19 00:34:00,
2013-04-18 17:39:00,51.5,33.9,27.71,SSE,158,1.1,3.8,51,0.00,,,0.00,WUHU216HW,2013-04-19 00:39:00,
2013-04-18 17:44:00,51.5,33.9,27.71,SSE,158,1.8,3.8,51,0.00,,,0.00,WUHU216HW,2013-04-19 00:44:00,
2013-04-18 17:49:00,51.5,34.4,27.71,SSE,158,1.1,2.5,52,0.00,,,0.00,WUHU216HW,2013-04-19 00:49:00,
2013-04-18 17:54:00,51.5,34.4,27.71,SSW,203,2.2,2.5,52,0.00,,,0.00,WUHU216HW,2013-04-19 00:54:00,
2013-04-18 17:59:00,51.3,34.3,27.71,ESE,113,1.8,4.3,52,0.00,,,0.00,WUHU216HW,2013-04-19 00:59:00,
2013-04-18 18:05:00,51.5,33.9,27.71,SSW,203,1.8,4.3,51,0.00,,,0.00,WUHU216HW,2013-04-19 01:05:00,
2013-04-18 18:09:00,51.5,34.4,27.71,SSE,158,1.1,4.0,52,0.00,,,0.00,WUHU216HW,2013-04-19 01:09:00,
2013-04-18 18:14:00,51.5,34.8,27.71,SSE,158,1.3,4.0,53,0.00,,,0.00,WUHU216HW,2013-04-19 01:14:00,
2013-04-18 18:19:00,51.5,33.9,27.72,SE,135,2.5,2.7,51,0.00,,,0.00,WUHU216HW,2013-04-19 01:19:00,
2013-04-18 18:24:00,51.3,34.3,27.72,SSE,158,1.1,3.8,52,0.00,,,0.00,WUHU216HW,2013-04-19 01:24:00,
2013-04-18 18:29:00,51.3,34.3,27.72,SE,135,2.0,3.8,52,0.00,,,0.00,WUHU216HW,2013-04-19 01:29:00,
2013-04-18 18:34:00,51.1,34.1,27.72,SSW,203,1.8,4.0,52,0.00,,,0.00,WUHU216HW,2013-04-19 01:34:00,
2013-04-18 18:39:00,50.9,34.8,27.72,South,180,0.4,4.3,54,0.00,,,0.00,WUHU216HW,2013-04-19 01:39:00,
2013-04-18 18:44:00,50.8,34.2,27.72,South,180,2.5,4.3,53,0.00,,,0.00,WUHU216HW,2013-04-19 01:44:00,
2013-04-18 18:49:00,50.6,34.0,27.72,SW,225,1.3,2.5,53,0.00,,,0.00,WUHU216HW,2013-04-19 01:49:00,
2013-04-18 18:54:00,50.4,34.4,27.71,South,180,0.9,2.5,54,0.00,,,0.00,WUHU216HW,2013-04-19 01:54:00,
2013-04-18 18:59:00,50.2,34.7,27.71,SSW,203,1.1,1.8,55,0.00,,,0.00,WUHU216HW,2013-04-19 01:59:00,
2013-04-18 19:04:00,50.0,34.0,27.71,SSW,203,0.9,2.5,54,0.00,,,0.00,WUHU216HW,2013-04-19 02:04:00,
2013-04-18 19:09:00,50.0,34.5,27.71,South,180,1.1,2.5,55,0.00,,,0.00,WUHU216HW,2013-04-19 02:09:00,
2013-04-18 19:14:00,50.0,34.5,27.70,SE,135,0.0,1.8,55,0.00,,,0.00,WUHU216HW,2013-04-19 02:14:00,
2013-04-18 19:19:00,49.9,34.3,27.70,SSE,158,1.3,2.0,55,0.00,,,0.00,WUHU216HW,2013-04-19 02:19:00,
2013-04-18 19:25:00,49.9,34.3,27.70,SSE,158,0.9,2.2,55,0.00,,,0.00,WUHU216HW,2013-04-19 02:25:00,
2013-04-18 19:30:00,49.9,34.3,27.69,SSE,158,0.4,2.2,55,0.00,,,0.00,WUHU216HW,2013-04-19 02:30:00,
2013-04-18 19:35:00,49.7,34.6,27.69,SSE,158,1.1,2.5,56,0.00,,,0.00,WUHU216HW,2013-04-19 02:35:00,
2013-04-18 19:39:00,49.7,34.6,27.69,SSE,158,0.4,2.5,56,0.00,,,0.00,WUHU216HW,2013-04-19 02:39:00,
2013-04-18 19:44:00,49.7,34.6,27.69,South,180,1.8,1.8,56,0.00,,,0.00,WUHU216HW,2013-04-19 02:44:00,
2013-04-18 19:49:00,49.5,34.4,27.69,SSE,158,1.1,2.0,56,0.00,,,0.00,WUHU216HW,2013-04-19 02:49:00,
2013-04-18 19:54:00,49.3,34.8,27.69,SSE,158,1.3,2.0,57,0.00,,,0.00,WUHU216HW,2013-04-19 02:54:00,
2013-04-18 19:59:00,49.3,34.8,27.69,SE,135,0.4,1.8,57,0.00,,,0.00,WUHU216HW,2013-04-19 02:59:00,
2013-04-18 20:04:00,49.3,35.2,27.69,SSW,203,1.6,1.8,58,0.00,,,0.00,WUHU216HW,2013-04-19 03:04:00,
2013-04-18 20:09:00,49.3,35.2,27.69,ESE,113,1.1,1.8,58,0.00,,,0.00,WUHU216HW,2013-04-19 03:09:00,
2013-04-18 20:14:00,49.1,35.5,27.69,ESE,113,2.7,2.7,59,0.00,,,0.00,WUHU216HW,2013-04-19 03:14:00,
2013-04-18 20:19:00,49.0,35.7,27.69,ESE,113,2.0,3.8,60,0.00,,,0.00,WUHU216HW,2013-04-19 03:19:00,
2013-04-18 20:24:00,48.8,35.6,27.69,SSW,203,0.4,3.8,60,0.00,,,0.00,WUHU216HW,2013-04-19 03:24:00,
2013-04-18 20:29:00,48.6,35.8,27.69,South,180,2.0,2.2,61,0.00,,,0.00,WUHU216HW,2013-04-19 03:29:00,
2013-04-18 20:34:00,48.4,35.6,27.69,ESE,113,3.8,3.8,61,0.00,,,0.00,WUHU216HW,2013-04-19 03:34:00,
2013-04-18 20:39:00,48.2,35.5,27.69,ESE,113,1.8,3.8,61,0.00,,,0.00,WUHU216HW,2013-04-19 03:39:00,
2013-04-18 20:44:00,48.1,35.3,27.69,SE,135,1.6,3.8,61,0.00,,,0.00,WUHU216HW,2013-04-19 03:44:00,
2013-04-18 20:49:00,47.9,35.1,27.68,SE,135,2.2,3.6,61,0.00,,,0.00,WUHU216HW,2013-04-19 03:49:00,
2013-04-18 20:54:00,47.5,34.7,27.69,SE,135,1.8,4.0,61,0.00,,,0.00,WUHU216HW,2013-04-19 03:54:00,
2013-04-18 20:59:00,47.3,34.6,27.68,SSE,158,0.4,4.0,61,0.00,,,0.00,WUHU216HW,2013-04-19 03:59:00,
2013-04-18 21:01:00,47.3,34.6,27.68,ESE,113,1.1,2.5,61,0.00,,,0.00,WUHU216HW,2013-04-19 04:01:00,
2013-04-18 21:06:00,47.2,34.4,27.68,ESE,113,2.0,3.6,61,0.00,,,0.00,WUHU216HW,2013-04-19 04:06:00,
2013-04-18 21:11:00,47.0,34.2,27.68,SSE,158,1.1,3.6,61,0.00,,,0.00,WUHU216HW,2013-04-19 04:11:00,
2013-04-18 21:16:00,47.0,34.2,27.68,SSW,203,0.9,5.1,61,0.00,,,0.00,WUHU216HW,2013-04-19 04:16:00,
2013-04-18 21:21:00,47.0,34.2,27.68,ESE,113,2.9,5.1,61,0.00,,,0.00,WUHU216HW,2013-04-19 04:21:00,
2013-04-18 21:26:00,46.8,34.0,27.68,ESE,113,2.0,3.6,61,0.00,,,0.00,WUHU216HW,2013-04-19 04:26:00,
2013-04-18 21:31:00,46.8,34.5,27.68,SE,135,2.9,4.0,62,0.00,,,0.00,WUHU216HW,2013-04-19 04:31:00,
2013-04-18 21:36:00,46.6,34.3,27.68,ESE,113,2.7,4.0,62,0.00,,,0.00,WUHU216HW,2013-04-19 04:36:00,
2013-04-18 21:41:00,46.6,34.3,27.68,ESE,113,1.1,3.6,62,0.00,,,0.00,WUHU216HW,2013-04-19 04:41:00,
2013-04-18 21:46:00,46.4,34.5,27.68,SE,135,0.4,3.8,63,0.00,,,0.00,WUHU216HW,2013-04-19 04:46:00,
2013-04-18 21:51:00,46.4,34.5,27.67,SE,135,2.7,4.7,63,0.00,,,0.00,WUHU216HW,2013-04-19 04:51:00,
2013-04-18 21:56:00,46.3,34.3,27.67,SE,135,1.1,4.7,63,0.00,,,0.00,WUHU216HW,2013-04-19 04:56:00,
2013-04-18 22:01:00,46.1,34.6,27.67,SE,135,2.7,4.0,64,0.00,,,0.00,WUHU216HW,2013-04-19 05:01:00,
2013-04-18 22:06:00,46.3,34.8,27.67,SE,135,2.5,2.7,64,0.00,,,0.00,WUHU216HW,2013-04-19 05:06:00,
2013-04-18 22:11:00,46.1,34.6,27.67,ESE,113,2.5,2.7,64,0.00,,,0.00,WUHU216HW,2013-04-19 05:11:00,
2013-04-18 22:16:00,46.1,34.9,27.66,SE,135,0.7,4.0,65,0.00,,,0.00,WUHU216HW,2013-04-19 05:16:00,
2013-04-18 22:21:00,46.1,34.9,27.66,SSE,158,1.1,4.0,65,0.00,,,0.00,WUHU216HW,2013-04-19 05:21:00,
2013-04-18 22:26:00,46.1,34.6,27.66,SE,135,2.5,2.9,64,0.00,,,0.00,WUHU216HW,2013-04-19 05:26:00,
2013-04-18 22:31:00,46.1,34.6,27.66,SE,135,2.0,4.7,64,0.00,,,0.00,WUHU216HW,2013-04-19 05:31:00,
2013-04-18 22:36:00,46.1,34.1,27.66,SE,135,3.8,4.7,63,0.00,,,0.00,WUHU216HW,2013-04-19 05:36:00,
2013-04-18 22:41:00,46.1,34.6,27.66,SE,135,2.5,3.8,64,0.00,,,0.00,WUHU216HW,2013-04-19 05:41:00,
2013-04-18 22:46:00,46.1,34.1,27.65,SSE,158,1.3,3.8,63,0.00,,,0.00,WUHU216HW,2013-04-19 05:46:00,
2013-04-18 22:51:00,46.1,34.1,27.65,ESE,113,2.2,4.0,63,0.00,,,0.00,WUHU216HW,2013-04-19 05:51:00,
2013-04-18 22:56:00,46.1,34.1,27.65,SSE,158,2.2,4.5,63,0.00,,,0.00,WUHU216HW,2013-04-19 05:56:00,
2013-04-18 23:01:00,46.1,34.1,27.65,SSW,203,1.6,4.5,63,0.00,,,0.00,WUHU216HW,2013-04-19 06:01:00,
2013-04-18 23:06:00,46.1,34.1,27.64,SE,135,1.1,3.6,63,0.00,,,0.00,WUHU216HW,2013-04-19 06:06:00,
2013-04-18 23:11:00,45.9,34.4,27.64,SE,135,1.6,3.8,64,0.00,,,0.00,WUHU216HW,2013-04-19 06:11:00,
2013-04-18 23:16:00,45.9,34.4,27.64,SSE,158,1.1,3.8,64,0.00,,,0.00,WUHU216HW,2013-04-19 06:16:00,
2013-04-18 23:21:00,45.7,34.6,27.64,South,180,1.3,3.8,65,0.00,,,0.00,WUHU216HW,2013-04-19 06:21:00,
2013-04-18 23:26:00,45.7,35.0,27.64,ESE,113,4.3,4.3,66,0.00,,,0.00,WUHU216HW,2013-04-19 06:26:00,
2013-04-18 23:31:00,45.5,35.2,27.64,SSE,158,1.8,4.3,67,0.00,,,0.00,WUHU216HW,2013-04-19 06:31:00,
2013-04-18 23:36:00,45.4,35.0,27.64,SSW,203,1.1,4.3,67,0.00,,,0.00,WUHU216HW,2013-04-19 06:36:00,
2013-04-18 23:41:00,45.4,35.0,27.64,SE,135,1.3,4.0,67,0.00,,,0.00,WUHU216HW,2013-04-19 06:41:00,
2013-04-18 23:46:00,45.2,35.7,27.63,SSE,158,1.3,3.6,69,0.00,,,0.00,WUHU216HW,2013-04-19 06:46:00,
2013-04-18 23:51:00,45.0,36.6,27.64,SSE,158,2.0,3.6,72,0.00,,,0.00,WUHU216HW,2013-04-19 06:51:00,
2013-04-18 23:56:00,44.6,36.2,27.64,SSE,158,1.8,2.5,72,0.00,,,0.00,WUHU216HW,2013-04-19 06:56:00,